sensor_id;sensor_type;location;lat;lon;timestamp;P1;durP1;ratioP1;P2;durP2;ratioP2
39370;SDS011;25099;51.946;4.838;2022-12-18T00:01:48;101.40;;;33.83;;
39370;SDS011;25099;51.946;4.838;2022-12-18T00:04:23;94.20;;;31.13;;
39370;SDS011;25099;51.946;4.838;2022-12-18T00:06:50;103.07;;;32.17;;
39370;SDS011;25099;51.946;4.838;2022-12-18T00:09:16;104.38;;;33.75;;
39370;SDS011;25099;51.946;4.838;2022-12-18T00:11:41;96.10;;;31.38;;
39370;SDS011;25099;51.946;4.838;2022-12-18T00:14:08;101.82;;;32.35;;
39370;SDS011;25099;51.946;4.838;2022-12-18T00:16:35;93.32;;;31.67;;
39370;SDS011;25099;51.946;4.838;2022-12-18T00:19:02;82.53;;;29.75;;
39370;SDS011;25099;51.946;4.838;2022-12-18T00:21:29;111.28;;;31.92;;
39370;SDS011;25099;51.946;4.838;2022-12-18T00:23:58;84.05;;;29.83;;
39370;SDS011;25099;51.946;4.838;2022-12-18T00:26:26;77.13;;;27.33;;
39370;SDS011;25099;51.946;4.838;2022-12-18T00:29:14;79.03;;;29.30;;
39370;SDS011;25099;51.946;4.838;2022-12-18T00:31:40;76.25;;;27.13;;
39370;SDS011;25099;51.946;4.838;2022-12-18T00:34:08;92.07;;;30.80;;
39370;SDS011;25099;51.946;4.838;2022-12-18T00:36:36;75.97;;;26.98;;
39370;SDS011;25099;51.946;4.838;2022-12-18T00:39:03;100.85;;;32.17;;
39370;SDS011;25099;51.946;4.838;2022-12-18T00:41:29;81.53;;;29.55;;
39370;SDS011;25099;51.946;4.838;2022-12-18T00:44:15;77.97;;;28.30;;
39370;SDS011;25099;51.946;4.838;2022-12-18T00:46:42;76.93;;;29.20;;
39370;SDS011;25099;51.946;4.838;2022-12-18T00:49:08;78.50;;;27.27;;
39370;SDS011;25099;51.946;4.838;2022-12-18T00:51:34;78.18;;;28.58;;
39370;SDS011;25099;51.946;4.838;2022-12-18T00:54:00;81.45;;;27.95;;
39370;SDS011;25099;51.946;4.838;2022-12-18T00:56:26;76.45;;;28.48;;
39370;SDS011;25099;51.946;4.838;2022-12-18T00:58:51;80.70;;;29.38;;
39370;SDS011;25099;51.946;4.838;2022-12-18T01:01:17;76.47;;;27.63;;
39370;SDS011;25099;51.946;4.838;2022-12-18T01:03:43;74.63;;;30.85;;
39370;SDS011;25099;51.946;4.838;2022-12-18T01:06:10;81.68;;;30.27;;
39370;SDS011;25099;51.946;4.838;2022-12-18T01:08:37;80.13;;;29.88;;
39370;SDS011;25099;51.946;4.838;2022-12-18T01:11:10;77.13;;;28.40;;
39370;SDS011;25099;51.946;4.838;2022-12-18T01:13:38;68.32;;;26.35;;
39370;SDS011;25099;51.946;4.838;2022-12-18T01:16:04;76.63;;;25.55;;
39370;SDS011;25099;51.946;4.838;2022-12-18T01:18:30;81.30;;;27.50;;
39370;SDS011;25099;51.946;4.838;2022-12-18T01:20:56;81.60;;;29.77;;
39370;SDS011;25099;51.946;4.838;2022-12-18T01:23:21;85.95;;;29.63;;
39370;SDS011;25099;51.946;4.838;2022-12-18T01:25:47;78.15;;;27.75;;
39370;SDS011;25099;51.946;4.838;2022-12-18T01:28:13;92.85;;;29.70;;
39370;SDS011;25099;51.946;4.838;2022-12-18T01:30:38;89.30;;;30.60;;
39370;SDS011;25099;51.946;4.838;2022-12-18T01:33:04;77.75;;;26.98;;
39370;SDS011;25099;51.946;4.838;2022-12-18T01:35:30;68.05;;;26.27;;
39370;SDS011;25099;51.946;4.838;2022-12-18T01:37:56;71.57;;;26.67;;
39370;SDS011;25099;51.946;4.838;2022-12-18T01:40:22;80.28;;;25.58;;
39370;SDS011;25099;51.946;4.838;2022-12-18T01:42:54;61.33;;;24.30;;
39370;SDS011;25099;51.946;4.838;2022-12-18T01:45:25;66.60;;;26.52;;
39370;SDS011;25099;51.946;4.838;2022-12-18T01:47:59;68.43;;;25.80;;
39370;SDS011;25099;51.946;4.838;2022-12-18T01:53:03;70.07;;;27.50;;
39370;SDS011;25099;51.946;4.838;2022-12-18T01:55:43;69.72;;;26.95;;
39370;SDS011;25099;51.946;4.838;2022-12-18T01:58:17;67.20;;;26.63;;
39370;SDS011;25099;51.946;4.838;2022-12-18T02:00:43;66.70;;;25.92;;
39370;SDS011;25099;51.946;4.838;2022-12-18T02:03:09;65.38;;;26.30;;
39370;SDS011;25099;51.946;4.838;2022-12-18T02:05:46;70.03;;;27.33;;
39370;SDS011;25099;51.946;4.838;2022-12-18T02:08:43;62.58;;;25.85;;
39370;SDS011;25099;51.946;4.838;2022-12-18T02:22:26;62.92;;;26.48;;
39370;SDS011;25099;51.946;4.838;2022-12-18T02:27:38;65.45;;;24.83;;
39370;SDS011;25099;51.946;4.838;2022-12-18T02:30:05;66.90;;;25.98;;
39370;SDS011;25099;51.946;4.838;2022-12-18T02:32:43;64.15;;;25.60;;
39370;SDS011;25099;51.946;4.838;2022-12-18T02:35:20;63.50;;;23.63;;
39370;SDS011;25099;51.946;4.838;2022-12-18T02:37:54;58.72;;;25.40;;
39370;SDS011;25099;51.946;4.838;2022-12-18T02:40:20;63.63;;;25.02;;
39370;SDS011;25099;51.946;4.838;2022-12-18T02:42:49;60.75;;;23.25;;
39370;SDS011;25099;51.946;4.838;2022-12-18T02:45:15;61.75;;;25.60;;
39370;SDS011;25099;51.946;4.838;2022-12-18T02:47:42;55.05;;;23.10;;
39370;SDS011;25099;51.946;4.838;2022-12-18T02:50:14;66.50;;;26.63;;
39370;SDS011;25099;51.946;4.838;2022-12-18T02:52:55;57.70;;;23.95;;
39370;SDS011;25099;51.946;4.838;2022-12-18T02:59:05;61.70;;;24.83;;
39370;SDS011;25099;51.946;4.838;2022-12-18T03:07:11;59.33;;;23.90;;
39370;SDS011;25099;51.946;4.838;2022-12-18T03:09:41;56.08;;;23.85;;
39370;SDS011;25099;51.946;4.838;2022-12-18T03:14:59;68.45;;;28.50;;
39370;SDS011;25099;51.946;4.838;2022-12-18T03:17:32;73.63;;;27.17;;
39370;SDS011;25099;51.946;4.838;2022-12-18T03:20:02;70.95;;;27.70;;
39370;SDS011;25099;51.946;4.838;2022-12-18T03:22:33;70.40;;;27.08;;
39370;SDS011;25099;51.946;4.838;2022-12-18T03:25:03;49.60;;;19.90;;
39370;SDS011;25099;51.946;4.838;2022-12-18T03:27:33;70.57;;;27.30;;
39370;SDS011;25099;51.946;4.838;2022-12-18T03:30:04;71.00;;;28.23;;
39370;SDS011;25099;51.946;4.838;2022-12-18T03:32:36;71.13;;;29.08;;
39370;SDS011;25099;51.946;4.838;2022-12-18T03:35:16;72.57;;;28.35;;
39370;SDS011;25099;51.946;4.838;2022-12-18T03:37:47;70.85;;;29.17;;
39370;SDS011;25099;51.946;4.838;2022-12-18T03:40:13;69.28;;;27.65;;
39370;SDS011;25099;51.946;4.838;2022-12-18T03:43:02;69.35;;;28.17;;
39370;SDS011;25099;51.946;4.838;2022-12-18T03:45:32;74.53;;;29.30;;
39370;SDS011;25099;51.946;4.838;2022-12-18T03:51:28;74.40;;;29.08;;
39370;SDS011;25099;51.946;4.838;2022-12-18T03:54:00;67.28;;;25.95;;
39370;SDS011;25099;51.946;4.838;2022-12-18T03:56:29;71.97;;;27.42;;
39370;SDS011;25099;51.946;4.838;2022-12-18T03:58:58;71.07;;;28.35;;
39370;SDS011;25099;51.946;4.838;2022-12-18T04:01:28;67.05;;;27.50;;
39370;SDS011;25099;51.946;4.838;2022-12-18T04:03:58;69.95;;;27.30;;
39370;SDS011;25099;51.946;4.838;2022-12-18T04:06:26;68.32;;;27.40;;
39370;SDS011;25099;51.946;4.838;2022-12-18T04:08:53;71.30;;;27.42;;
39370;SDS011;25099;51.946;4.838;2022-12-18T04:11:19;69.70;;;26.95;;
39370;SDS011;25099;51.946;4.838;2022-12-18T04:13:45;63.83;;;27.58;;
39370;SDS011;25099;51.946;4.838;2022-12-18T04:16:10;62.35;;;26.55;;
39370;SDS011;25099;51.946;4.838;2022-12-18T04:18:36;69.03;;;28.13;;
39370;SDS011;25099;51.946;4.838;2022-12-18T04:21:02;56.30;;;25.80;;
39370;SDS011;25099;51.946;4.838;2022-12-18T04:23:28;61.00;;;25.20;;
39370;SDS011;25099;51.946;4.838;2022-12-18T04:25:54;61.88;;;25.63;;
39370;SDS011;25099;51.946;4.838;2022-12-18T04:28:19;67.28;;;25.27;;
39370;SDS011;25099;51.946;4.838;2022-12-18T04:30:45;63.80;;;26.65;;
39370;SDS011;25099;51.946;4.838;2022-12-18T04:33:11;63.38;;;25.17;;
39370;SDS011;25099;51.946;4.838;2022-12-18T04:35:43;62.22;;;23.38;;
39370;SDS011;25099;51.946;4.838;2022-12-18T04:38:08;61.17;;;24.63;;
39370;SDS011;25099;51.946;4.838;2022-12-18T04:40:35;57.67;;;23.98;;
39370;SDS011;25099;51.946;4.838;2022-12-18T04:43:10;58.25;;;23.88;;
39370;SDS011;25099;51.946;4.838;2022-12-18T04:45:36;56.60;;;24.30;;
39370;SDS011;25099;51.946;4.838;2022-12-18T04:48:02;53.70;;;23.52;;
39370;SDS011;25099;51.946;4.838;2022-12-18T04:50:29;58.78;;;23.45;;
39370;SDS011;25099;51.946;4.838;2022-12-18T04:52:55;58.08;;;23.73;;
39370;SDS011;25099;51.946;4.838;2022-12-18T04:55:21;59.58;;;25.48;;
39370;SDS011;25099;51.946;4.838;2022-12-18T04:57:46;58.53;;;23.27;;
39370;SDS011;25099;51.946;4.838;2022-12-18T05:00:12;61.47;;;25.52;;
39370;SDS011;25099;51.946;4.838;2022-12-18T05:02:41;57.53;;;23.85;;
39370;SDS011;25099;51.946;4.838;2022-12-18T05:05:06;49.70;;;21.48;;
39370;SDS011;25099;51.946;4.838;2022-12-18T05:07:33;57.20;;;24.15;;
39370;SDS011;25099;51.946;4.838;2022-12-18T05:09:58;53.42;;;22.88;;
39370;SDS011;25099;51.946;4.838;2022-12-18T05:12:24;54.15;;;21.33;;
39370;SDS011;25099;51.946;4.838;2022-12-18T05:14:50;54.15;;;21.85;;
39370;SDS011;25099;51.946;4.838;2022-12-18T05:17:15;50.72;;;21.77;;
39370;SDS011;25099;51.946;4.838;2022-12-18T05:19:41;55.10;;;22.15;;
39370;SDS011;25099;51.946;4.838;2022-12-18T05:22:06;49.53;;;20.98;;
39370;SDS011;25099;51.946;4.838;2022-12-18T05:24:32;51.47;;;21.45;;
39370;SDS011;25099;51.946;4.838;2022-12-18T05:26:58;45.47;;;19.85;;
39370;SDS011;25099;51.946;4.838;2022-12-18T05:29:23;46.90;;;20.42;;
39370;SDS011;25099;51.946;4.838;2022-12-18T05:31:49;44.10;;;20.65;;
39370;SDS011;25099;51.946;4.838;2022-12-18T05:34:15;43.88;;;20.77;;
39370;SDS011;25099;51.946;4.838;2022-12-18T05:36:40;44.55;;;19.90;;
39370;SDS011;25099;51.946;4.838;2022-12-18T05:39:06;48.55;;;21.58;;
39370;SDS011;25099;51.946;4.838;2022-12-18T05:41:32;44.60;;;19.77;;
39370;SDS011;25099;51.946;4.838;2022-12-18T05:43:58;49.72;;;19.98;;
39370;SDS011;25099;51.946;4.838;2022-12-18T05:46:24;46.75;;;20.27;;
39370;SDS011;25099;51.946;4.838;2022-12-18T05:48:50;42.65;;;19.77;;
39370;SDS011;25099;51.946;4.838;2022-12-18T05:51:16;48.17;;;21.80;;
39370;SDS011;25099;51.946;4.838;2022-12-18T05:53:45;41.05;;;19.25;;
39370;SDS011;25099;51.946;4.838;2022-12-18T05:56:13;45.85;;;20.50;;
39370;SDS011;25099;51.946;4.838;2022-12-18T05:58:43;49.28;;;20.27;;
39370;SDS011;25099;51.946;4.838;2022-12-18T06:03:37;43.38;;;19.27;;
39370;SDS011;25099;51.946;4.838;2022-12-18T06:06:03;47.20;;;19.85;;
39370;SDS011;25099;51.946;4.838;2022-12-18T06:08:29;44.78;;;20.45;;
39370;SDS011;25099;51.946;4.838;2022-12-18T06:10:54;47.83;;;21.98;;
39370;SDS011;25099;51.946;4.838;2022-12-18T06:13:20;38.55;;;18.15;;
39370;SDS011;25099;51.946;4.838;2022-12-18T06:15:46;49.63;;;20.38;;
39370;SDS011;25099;51.946;4.838;2022-12-18T06:18:15;41.50;;;18.00;;
39370;SDS011;25099;51.946;4.838;2022-12-18T06:20:40;38.63;;;17.90;;
39370;SDS011;25099;51.946;4.838;2022-12-18T06:23:06;38.65;;;17.63;;
39370;SDS011;25099;51.946;4.838;2022-12-18T06:25:32;41.67;;;19.70;;
39370;SDS011;25099;51.946;4.838;2022-12-18T06:27:58;45.22;;;20.55;;
39370;SDS011;25099;51.946;4.838;2022-12-18T06:30:24;53.35;;;20.58;;
39370;SDS011;25099;51.946;4.838;2022-12-18T06:32:50;40.53;;;18.85;;
39370;SDS011;25099;51.946;4.838;2022-12-18T06:35:16;38.90;;;16.73;;
39370;SDS011;25099;51.946;4.838;2022-12-18T06:37:41;43.67;;;18.27;;
39370;SDS011;25099;51.946;4.838;2022-12-18T06:40:07;39.88;;;18.05;;
39370;SDS011;25099;51.946;4.838;2022-12-18T06:42:33;39.22;;;18.35;;
39370;SDS011;25099;51.946;4.838;2022-12-18T06:44:59;40.78;;;18.45;;
39370;SDS011;25099;51.946;4.838;2022-12-18T06:47:24;42.60;;;19.02;;
39370;SDS011;25099;51.946;4.838;2022-12-18T06:49:50;39.40;;;17.98;;
39370;SDS011;25099;51.946;4.838;2022-12-18T06:52:15;42.42;;;18.95;;
39370;SDS011;25099;51.946;4.838;2022-12-18T06:54:41;37.70;;;18.58;;
39370;SDS011;25099;51.946;4.838;2022-12-18T06:57:06;36.20;;;17.25;;
39370;SDS011;25099;51.946;4.838;2022-12-18T06:59:32;38.40;;;18.20;;
39370;SDS011;25099;51.946;4.838;2022-12-18T07:02:00;34.42;;;18.20;;
39370;SDS011;25099;51.946;4.838;2022-12-18T07:04:29;35.28;;;18.60;;
39370;SDS011;25099;51.946;4.838;2022-12-18T07:06:55;34.88;;;17.10;;
39370;SDS011;25099;51.946;4.838;2022-12-18T07:09:21;38.25;;;20.13;;
39370;SDS011;25099;51.946;4.838;2022-12-18T07:11:46;36.75;;;18.38;;
39370;SDS011;25099;51.946;4.838;2022-12-18T07:14:12;43.03;;;20.20;;
39370;SDS011;25099;51.946;4.838;2022-12-18T07:16:37;38.33;;;19.85;;
39370;SDS011;25099;51.946;4.838;2022-12-18T07:19:03;35.10;;;18.75;;
39370;SDS011;25099;51.946;4.838;2022-12-18T07:21:29;40.35;;;20.33;;
39370;SDS011;25099;51.946;4.838;2022-12-18T07:23:54;38.85;;;19.50;;
39370;SDS011;25099;51.946;4.838;2022-12-18T07:26:20;32.92;;;18.00;;
39370;SDS011;25099;51.946;4.838;2022-12-18T07:28:47;39.92;;;20.73;;
39370;SDS011;25099;51.946;4.838;2022-12-18T07:31:14;38.83;;;19.45;;
39370;SDS011;25099;51.946;4.838;2022-12-18T07:33:42;44.65;;;21.15;;
39370;SDS011;25099;51.946;4.838;2022-12-18T07:36:08;40.05;;;19.70;;
39370;SDS011;25099;51.946;4.838;2022-12-18T07:38:35;42.40;;;21.27;;
39370;SDS011;25099;51.946;4.838;2022-12-18T07:41:09;41.40;;;19.88;;
39370;SDS011;25099;51.946;4.838;2022-12-18T07:43:36;38.78;;;18.80;;
39370;SDS011;25099;51.946;4.838;2022-12-18T07:46:02;38.35;;;19.10;;
39370;SDS011;25099;51.946;4.838;2022-12-18T07:48:29;41.30;;;20.15;;
39370;SDS011;25099;51.946;4.838;2022-12-18T07:51:02;41.85;;;20.40;;
39370;SDS011;25099;51.946;4.838;2022-12-18T07:53:30;35.83;;;20.42;;
39370;SDS011;25099;51.946;4.838;2022-12-18T07:55:57;35.70;;;17.92;;
39370;SDS011;25099;51.946;4.838;2022-12-18T07:58:28;36.03;;;18.55;;
39370;SDS011;25099;51.946;4.838;2022-12-18T08:00:54;34.15;;;17.58;;
39370;SDS011;25099;51.946;4.838;2022-12-18T08:03:26;38.50;;;18.13;;
39370;SDS011;25099;51.946;4.838;2022-12-18T08:05:52;37.38;;;17.20;;
39370;SDS011;25099;51.946;4.838;2022-12-18T08:08:17;33.55;;;18.17;;
39370;SDS011;25099;51.946;4.838;2022-12-18T08:10:43;31.30;;;16.73;;
39370;SDS011;25099;51.946;4.838;2022-12-18T08:13:08;36.00;;;17.33;;
39370;SDS011;25099;51.946;4.838;2022-12-18T08:15:35;35.88;;;16.75;;
39370;SDS011;25099;51.946;4.838;2022-12-18T08:18:01;35.55;;;17.33;;
39370;SDS011;25099;51.946;4.838;2022-12-18T08:20:26;34.33;;;17.10;;
39370;SDS011;25099;51.946;4.838;2022-12-18T08:22:52;31.00;;;16.50;;
39370;SDS011;25099;51.946;4.838;2022-12-18T08:25:18;38.13;;;17.67;;
39370;SDS011;25099;51.946;4.838;2022-12-18T08:27:43;36.00;;;16.52;;
39370;SDS011;25099;51.946;4.838;2022-12-18T08:30:09;30.02;;;15.38;;
39370;SDS011;25099;51.946;4.838;2022-12-18T08:32:35;31.15;;;16.38;;
39370;SDS011;25099;51.946;4.838;2022-12-18T08:35:01;31.23;;;16.58;;
39370;SDS011;25099;51.946;4.838;2022-12-18T08:37:27;32.92;;;16.17;;
39370;SDS011;25099;51.946;4.838;2022-12-18T08:39:52;31.45;;;17.55;;
39370;SDS011;25099;51.946;4.838;2022-12-18T08:42:18;31.50;;;15.98;;
39370;SDS011;25099;51.946;4.838;2022-12-18T08:45:02;31.73;;;16.98;;
39370;SDS011;25099;51.946;4.838;2022-12-18T08:47:28;30.15;;;15.38;;
39370;SDS011;25099;51.946;4.838;2022-12-18T08:49:54;31.55;;;17.38;;
39370;SDS011;25099;51.946;4.838;2022-12-18T08:52:19;31.88;;;17.08;;
39370;SDS011;25099;51.946;4.838;2022-12-18T08:54:45;32.85;;;17.13;;
39370;SDS011;25099;51.946;4.838;2022-12-18T08:57:11;33.95;;;16.73;;
39370;SDS011;25099;51.946;4.838;2022-12-18T08:59:36;29.00;;;15.60;;
39370;SDS011;25099;51.946;4.838;2022-12-18T09:02:02;36.05;;;16.35;;
39370;SDS011;25099;51.946;4.838;2022-12-18T09:04:27;30.45;;;16.08;;
39370;SDS011;25099;51.946;4.838;2022-12-18T09:06:56;32.20;;;16.05;;
39370;SDS011;25099;51.946;4.838;2022-12-18T09:09:21;27.80;;;15.50;;
39370;SDS011;25099;51.946;4.838;2022-12-18T09:11:47;32.15;;;17.02;;
39370;SDS011;25099;51.946;4.838;2022-12-18T09:14:12;33.15;;;16.60;;
39370;SDS011;25099;51.946;4.838;2022-12-18T09:16:38;34.55;;;17.00;;
39370;SDS011;25099;51.946;4.838;2022-12-18T09:19:04;33.17;;;17.02;;
39370;SDS011;25099;51.946;4.838;2022-12-18T09:21:31;28.67;;;15.90;;
39370;SDS011;25099;51.946;4.838;2022-12-18T09:23:58;30.30;;;16.27;;
39370;SDS011;25099;51.946;4.838;2022-12-18T09:26:24;36.22;;;16.20;;
39370;SDS011;25099;51.946;4.838;2022-12-18T09:28:51;33.17;;;15.95;;
39370;SDS011;25099;51.946;4.838;2022-12-18T09:31:17;28.05;;;16.50;;
39370;SDS011;25099;51.946;4.838;2022-12-18T09:33:47;32.85;;;16.30;;
39370;SDS011;25099;51.946;4.838;2022-12-18T09:36:21;51.28;;;19.27;;
39370;SDS011;25099;51.946;4.838;2022-12-18T09:38:47;31.33;;;16.85;;
39370;SDS011;25099;51.946;4.838;2022-12-18T09:43:59;32.08;;;16.10;;
39370;SDS011;25099;51.946;4.838;2022-12-18T09:46:34;28.00;;;15.18;;
39370;SDS011;25099;51.946;4.838;2022-12-18T09:49:05;29.23;;;14.43;;
39370;SDS011;25099;51.946;4.838;2022-12-18T09:51:37;30.00;;;16.13;;
39370;SDS011;25099;51.946;4.838;2022-12-18T09:54:11;30.80;;;16.10;;
39370;SDS011;25099;51.946;4.838;2022-12-18T09:56:42;26.20;;;14.88;;
39370;SDS011;25099;51.946;4.838;2022-12-18T09:59:15;31.23;;;15.75;;
39370;SDS011;25099;51.946;4.838;2022-12-18T10:04:14;30.25;;;15.10;;
39370;SDS011;25099;51.946;4.838;2022-12-18T10:06:43;28.38;;;15.20;;
39370;SDS011;25099;51.946;4.838;2022-12-18T10:09:28;25.52;;;15.30;;
39370;SDS011;25099;51.946;4.838;2022-12-18T10:20:00;28.15;;;15.20;;
39370;SDS011;25099;51.946;4.838;2022-12-18T10:22:39;31.67;;;16.42;;
39370;SDS011;25099;51.946;4.838;2022-12-18T10:25:19;25.05;;;14.65;;
39370;SDS011;25099;51.946;4.838;2022-12-18T10:27:52;30.10;;;15.95;;
39370;SDS011;25099;51.946;4.838;2022-12-18T10:30:21;37.07;;;15.07;;
39370;SDS011;25099;51.946;4.838;2022-12-18T10:32:48;32.65;;;15.95;;
39370;SDS011;25099;51.946;4.838;2022-12-18T10:35:21;24.92;;;15.35;;
39370;SDS011;25099;51.946;4.838;2022-12-18T10:38:19;26.52;;;13.95;;
39370;SDS011;25099;51.946;4.838;2022-12-18T10:40:57;29.58;;;14.38;;
39370;SDS011;25099;51.946;4.838;2022-12-18T10:46:01;27.23;;;14.52;;
39370;SDS011;25099;51.946;4.838;2022-12-18T10:48:27;24.83;;;14.55;;
39370;SDS011;25099;51.946;4.838;2022-12-18T10:50:54;26.83;;;15.05;;
39370;SDS011;25099;51.946;4.838;2022-12-18T10:53:22;28.05;;;14.85;;
39370;SDS011;25099;51.946;4.838;2022-12-18T10:55:50;25.38;;;15.07;;
39370;SDS011;25099;51.946;4.838;2022-12-18T10:58:23;28.95;;;16.35;;
39370;SDS011;25099;51.946;4.838;2022-12-18T11:03:38;31.30;;;14.18;;
39370;SDS011;25099;51.946;4.838;2022-12-18T11:08:41;24.30;;;13.88;;
39370;SDS011;25099;51.946;4.838;2022-12-18T11:11:21;25.73;;;15.18;;
39370;SDS011;25099;51.946;4.838;2022-12-18T11:13:54;32.70;;;14.45;;
39370;SDS011;25099;51.946;4.838;2022-12-18T11:16:32;26.27;;;14.60;;
39370;SDS011;25099;51.946;4.838;2022-12-18T11:19:13;24.63;;;14.05;;
39370;SDS011;25099;51.946;4.838;2022-12-18T11:21:47;29.25;;;14.00;;
39370;SDS011;25099;51.946;4.838;2022-12-18T11:24:32;31.45;;;15.70;;
39370;SDS011;25099;51.946;4.838;2022-12-18T11:27:00;32.15;;;16.70;;
39370;SDS011;25099;51.946;4.838;2022-12-18T11:29:30;26.77;;;15.45;;
39370;SDS011;25099;51.946;4.838;2022-12-18T11:34:59;29.48;;;14.38;;
39370;SDS011;25099;51.946;4.838;2022-12-18T11:37:36;35.25;;;16.40;;
39370;SDS011;25099;51.946;4.838;2022-12-18T11:42:45;26.60;;;14.88;;
39370;SDS011;25099;51.946;4.838;2022-12-18T11:45:20;27.00;;;14.15;;
39370;SDS011;25099;51.946;4.838;2022-12-18T11:48:22;26.88;;;14.63;;
39370;SDS011;25099;51.946;4.838;2022-12-18T11:50:57;30.92;;;15.70;;
39370;SDS011;25099;51.946;4.838;2022-12-18T11:53:25;23.02;;;13.55;;
39370;SDS011;25099;51.946;4.838;2022-12-18T11:59:08;26.83;;;13.57;;
39370;SDS011;25099;51.946;4.838;2022-12-18T12:10:18;25.27;;;13.82;;
39370;SDS011;25099;51.946;4.838;2022-12-18T12:15:39;26.88;;;13.82;;
39370;SDS011;25099;51.946;4.838;2022-12-18T12:21:10;24.73;;;14.07;;
39370;SDS011;25099;51.946;4.838;2022-12-18T12:29:21;25.83;;;14.90;;
39370;SDS011;25099;51.946;4.838;2022-12-18T12:34:48;26.10;;;14.68;;
39370;SDS011;25099;51.946;4.838;2022-12-18T12:40:30;27.67;;;14.75;;
39370;SDS011;25099;51.946;4.838;2022-12-18T12:43:04;27.60;;;14.57;;
39370;SDS011;25099;51.946;4.838;2022-12-18T12:45:50;27.10;;;14.88;;
39370;SDS011;25099;51.946;4.838;2022-12-18T12:48:27;22.42;;;13.95;;
39370;SDS011;25099;51.946;4.838;2022-12-18T12:51:26;25.05;;;14.63;;
39370;SDS011;25099;51.946;4.838;2022-12-18T12:53:56;28.58;;;14.57;;
39370;SDS011;25099;51.946;4.838;2022-12-18T12:56:24;26.42;;;15.63;;
39370;SDS011;25099;51.946;4.838;2022-12-18T12:59:15;31.98;;;15.40;;
39370;SDS011;25099;51.946;4.838;2022-12-18T13:04:44;27.38;;;16.45;;
39370;SDS011;25099;51.946;4.838;2022-12-18T13:07:20;27.15;;;15.43;;
39370;SDS011;25099;51.946;4.838;2022-12-18T13:10:12;26.10;;;15.48;;
39370;SDS011;25099;51.946;4.838;2022-12-18T13:20:39;31.95;;;16.95;;
39370;SDS011;25099;51.946;4.838;2022-12-18T13:25:49;33.80;;;17.88;;
39370;SDS011;25099;51.946;4.838;2022-12-18T13:28:20;36.15;;;17.25;;
39370;SDS011;25099;51.946;4.838;2022-12-18T13:30:55;33.97;;;17.67;;
39370;SDS011;25099;51.946;4.838;2022-12-18T13:36:09;26.98;;;15.52;;
39370;SDS011;25099;51.946;4.838;2022-12-18T13:38:46;29.00;;;14.90;;
39370;SDS011;25099;51.946;4.838;2022-12-18T13:43:49;29.55;;;15.98;;
39370;SDS011;25099;51.946;4.838;2022-12-18T13:51:38;33.92;;;17.55;;
39370;SDS011;25099;51.946;4.838;2022-12-18T13:54:28;35.58;;;18.20;;
39370;SDS011;25099;51.946;4.838;2022-12-18T13:56:59;31.10;;;17.55;;
39370;SDS011;25099;51.946;4.838;2022-12-18T13:59:33;34.35;;;17.33;;
39370;SDS011;25099;51.946;4.838;2022-12-18T14:02:01;27.98;;;16.05;;
39370;SDS011;25099;51.946;4.838;2022-12-18T14:04:38;33.28;;;16.58;;
39370;SDS011;25099;51.946;4.838;2022-12-18T14:07:04;31.40;;;16.98;;
39370;SDS011;25099;51.946;4.838;2022-12-18T14:09:40;31.23;;;15.63;;
39370;SDS011;25099;51.946;4.838;2022-12-18T14:12:27;28.17;;;16.13;;
39370;SDS011;25099;51.946;4.838;2022-12-18T14:17:57;26.00;;;15.20;;
39370;SDS011;25099;51.946;4.838;2022-12-18T14:20:31;25.90;;;16.23;;
39370;SDS011;25099;51.946;4.838;2022-12-18T14:22:57;27.15;;;15.82;;
39370;SDS011;25099;51.946;4.838;2022-12-18T14:25:25;25.35;;;15.20;;
39370;SDS011;25099;51.946;4.838;2022-12-18T14:27:53;29.35;;;15.88;;
39370;SDS011;25099;51.946;4.838;2022-12-18T14:30:36;26.48;;;15.63;;
39370;SDS011;25099;51.946;4.838;2022-12-18T14:33:13;26.58;;;16.40;;
39370;SDS011;25099;51.946;4.838;2022-12-18T14:35:40;29.27;;;15.95;;
39370;SDS011;25099;51.946;4.838;2022-12-18T14:40:47;28.08;;;16.08;;
39370;SDS011;25099;51.946;4.838;2022-12-18T14:43:20;22.23;;;12.63;;
39370;SDS011;25099;51.946;4.838;2022-12-18T14:45:46;26.13;;;14.90;;
39370;SDS011;25099;51.946;4.838;2022-12-18T14:48:15;30.08;;;16.27;;
39370;SDS011;25099;51.946;4.838;2022-12-18T14:50:45;31.27;;;16.67;;
39370;SDS011;25099;51.946;4.838;2022-12-18T14:53:22;27.15;;;16.45;;
39370;SDS011;25099;51.946;4.838;2022-12-18T14:55:53;30.35;;;16.08;;
39370;SDS011;25099;51.946;4.838;2022-12-18T14:58:19;28.13;;;16.25;;
39370;SDS011;25099;51.946;4.838;2022-12-18T15:00:45;34.42;;;16.65;;
39370;SDS011;25099;51.946;4.838;2022-12-18T15:03:12;26.15;;;15.15;;
39370;SDS011;25099;51.946;4.838;2022-12-18T15:05:46;27.92;;;15.95;;
39370;SDS011;25099;51.946;4.838;2022-12-18T15:08:34;25.27;;;15.05;;
39370;SDS011;25099;51.946;4.838;2022-12-18T15:11:02;33.33;;;17.42;;
39370;SDS011;25099;51.946;4.838;2022-12-18T15:13:28;30.52;;;17.58;;
39370;SDS011;25099;51.946;4.838;2022-12-18T15:15:54;28.42;;;16.70;;
39370;SDS011;25099;51.946;4.838;2022-12-18T15:18:41;29.20;;;16.27;;
39370;SDS011;25099;51.946;4.838;2022-12-18T15:21:08;29.17;;;16.58;;
39370;SDS011;25099;51.946;4.838;2022-12-18T15:23:36;28.90;;;16.60;;
39370;SDS011;25099;51.946;4.838;2022-12-18T15:26:11;26.80;;;15.20;;
39370;SDS011;25099;51.946;4.838;2022-12-18T15:28:46;29.25;;;15.90;;
39370;SDS011;25099;51.946;4.838;2022-12-18T15:36:11;27.70;;;15.40;;
39370;SDS011;25099;51.946;4.838;2022-12-18T15:38:41;31.67;;;16.80;;
39370;SDS011;25099;51.946;4.838;2022-12-18T15:41:13;20.98;;;14.02;;
39370;SDS011;25099;51.946;4.838;2022-12-18T15:43:39;27.98;;;16.27;;
39370;SDS011;25099;51.946;4.838;2022-12-18T15:46:06;29.42;;;15.68;;
39370;SDS011;25099;51.946;4.838;2022-12-18T15:51:07;25.05;;;15.90;;
39370;SDS011;25099;51.946;4.838;2022-12-18T15:53:40;28.35;;;16.80;;
39370;SDS011;25099;51.946;4.838;2022-12-18T15:56:09;29.98;;;15.52;;
39370;SDS011;25099;51.946;4.838;2022-12-18T15:58:54;29.33;;;14.18;;
39370;SDS011;25099;51.946;4.838;2022-12-18T16:01:20;26.35;;;14.90;;
39370;SDS011;25099;51.946;4.838;2022-12-18T16:03:48;28.40;;;15.82;;
39370;SDS011;25099;51.946;4.838;2022-12-18T16:06:14;33.17;;;16.55;;
39370;SDS011;25099;51.946;4.838;2022-12-18T16:08:40;30.70;;;15.02;;
39370;SDS011;25099;51.946;4.838;2022-12-18T16:11:08;28.60;;;16.20;;
39370;SDS011;25099;51.946;4.838;2022-12-18T16:13:42;24.45;;;14.02;;
39370;SDS011;25099;51.946;4.838;2022-12-18T16:16:08;23.70;;;14.70;;
39370;SDS011;25099;51.946;4.838;2022-12-18T16:18:34;30.63;;;16.50;;
39370;SDS011;25099;51.946;4.838;2022-12-18T16:21:01;30.13;;;15.80;;
39370;SDS011;25099;51.946;4.838;2022-12-18T16:23:26;33.40;;;16.02;;
39370;SDS011;25099;51.946;4.838;2022-12-18T16:25:52;30.38;;;15.38;;
39370;SDS011;25099;51.946;4.838;2022-12-18T16:28:18;28.33;;;15.27;;
39370;SDS011;25099;51.946;4.838;2022-12-18T16:30:43;29.52;;;16.27;;
39370;SDS011;25099;51.946;4.838;2022-12-18T16:33:09;28.02;;;15.43;;
39370;SDS011;25099;51.946;4.838;2022-12-18T16:35:36;25.42;;;15.45;;
39370;SDS011;25099;51.946;4.838;2022-12-18T16:38:02;30.52;;;16.73;;
39370;SDS011;25099;51.946;4.838;2022-12-18T16:40:27;29.52;;;15.00;;
39370;SDS011;25099;51.946;4.838;2022-12-18T16:42:56;29.58;;;16.15;;